createdAt,value
2023-03-29T00:01:36.150Z,5.75
2023-03-29T00:04:06.473Z,5.73
2023-03-29T00:06:34.028Z,5.71
2023-03-29T00:09:01.894Z,5.69
2023-03-29T00:11:28.424Z,5.68
2023-03-29T00:13:54.921Z,5.70
2023-03-29T00:16:21.390Z,5.72
2023-03-29T00:18:48.313Z,5.68
2023-03-29T00:21:14.837Z,5.69
2023-03-29T00:23:41.376Z,5.70
2023-03-29T00:26:08.372Z,5.68
2023-03-29T00:28:35.533Z,5.66
2023-03-29T00:31:07.615Z,5.69
2023-03-29T00:33:34.657Z,5.68
2023-03-29T00:36:01.996Z,5.71
2023-03-29T00:38:28.755Z,5.71
2023-03-29T00:40:55.217Z,5.72
2023-03-29T00:43:22.047Z,5.71
2023-03-29T00:45:48.616Z,5.72
2023-03-29T00:48:18.210Z,5.73
2023-03-29T00:50:50.256Z,5.74
2023-03-29T00:53:35.794Z,5.74
2023-03-29T00:56:13.972Z,5.70
2023-03-29T00:59:08.201Z,5.72
2023-03-29T01:01:44.950Z,5.72
2023-03-29T01:04:24.030Z,5.73
2023-03-29T01:06:57.068Z,5.74
2023-03-29T01:09:27.081Z,5.75
2023-03-29T01:11:56.783Z,5.76
2023-03-29T01:14:42.578Z,5.76
2023-03-29T01:17:09.134Z,5.77
2023-03-29T01:19:45.404Z,5.75
2023-03-29T01:22:38.692Z,5.77
2023-03-29T01:25:16.088Z,5.77
2023-03-29T01:28:00.629Z,5.78
2023-03-29T01:30:31.737Z,5.80
2023-03-29T01:33:27.929Z,5.80
2023-03-29T01:36:14.034Z,5.81
2023-03-29T01:38:57.860Z,5.82
2023-03-29T01:41:47.771Z,5.83
2023-03-29T01:44:37.498Z,5.82
2023-03-29T01:47:24.339Z,5.82
2023-03-29T01:50:06.454Z,5.81
2023-03-29T01:52:45.739Z,5.83
2023-03-29T01:55:20.294Z,5.82
2023-03-29T01:57:48.483Z,5.83
2023-03-29T02:00:19.181Z,5.84
2023-03-29T02:02:47.773Z,5.84
2023-03-29T02:05:16.608Z,5.85
2023-03-29T02:07:46.118Z,5.84
2023-03-29T02:10:13.593Z,5.85
2023-03-29T02:12:40.225Z,5.85
2023-03-29T02:15:12.818Z,5.85
2023-03-29T02:17:39.411Z,5.86
2023-03-29T02:20:17.658Z,5.86
2023-03-29T02:22:54.397Z,5.87
2023-03-29T02:25:22.496Z,5.88
2023-03-29T02:27:49.401Z,5.87
2023-03-29T02:30:18.450Z,5.86
2023-03-29T02:33:04.929Z,5.87
2023-03-29T02:35:36.686Z,5.87
2023-03-29T02:38:06.388Z,5.87
2023-03-29T02:40:37.558Z,5.87
2023-03-29T02:43:06.939Z,5.90
2023-03-29T02:45:36.025Z,5.89
2023-03-29T02:48:07.673Z,5.90
2023-03-29T02:50:38.282Z,5.93
2023-03-29T02:53:15.188Z,5.94
2023-03-29T02:55:41.674Z,5.95
2023-03-29T02:58:08.444Z,5.95
2023-03-29T03:00:40.793Z,5.95
2023-03-29T03:03:08.504Z,5.97
2023-03-29T03:05:36.077Z,5.96
2023-03-29T03:08:02.776Z,5.96
2023-03-29T03:10:29.212Z,5.95
2023-03-29T03:12:55.956Z,5.96
2023-03-29T03:15:22.532Z,5.98
2023-03-29T03:17:49.357Z,5.97
2023-03-29T03:20:16.018Z,5.97
2023-03-29T03:22:48.648Z,5.98
2023-03-29T03:25:19.541Z,6.00
2023-03-29T03:27:46.576Z,6.00
2023-03-29T03:30:13.439Z,6.00
2023-03-29T03:32:40.012Z,6.01
2023-03-29T03:35:07.633Z,6.03
2023-03-29T03:37:34.097Z,6.05
2023-03-29T03:40:00.661Z,6.05
2023-03-29T03:42:28.882Z,6.04
2023-03-29T03:44:56.050Z,6.05
2023-03-29T03:47:22.893Z,6.06
2023-03-29T03:49:49.366Z,6.07
2023-03-29T03:52:16.342Z,6.09
2023-03-29T03:54:43.204Z,6.08
2023-03-29T03:57:09.786Z,6.08
2023-03-29T03:59:37.091Z,6.08
2023-03-29T04:02:06.828Z,6.08
2023-03-29T04:04:34.233Z,6.07
2023-03-29T04:07:04.867Z,6.09
2023-03-29T04:09:33.217Z,6.12
2023-03-29T04:12:01.500Z,6.11
2023-03-29T04:14:28.319Z,6.12
2023-03-29T04:16:55.102Z,6.11
2023-03-29T04:19:21.779Z,6.10
2023-03-29T04:21:49.537Z,6.11
2023-03-29T04:24:17.255Z,6.13
2023-03-29T04:26:44.500Z,6.13
2023-03-29T04:29:11.160Z,6.11
2023-03-29T04:31:37.786Z,6.10
2023-03-29T04:34:04.511Z,6.08
2023-03-29T04:36:30.937Z,6.08
2023-03-29T04:38:58.603Z,6.06
2023-03-29T04:41:25.057Z,6.03
2023-03-29T04:43:52.137Z,6.00
2023-03-29T04:46:18.584Z,5.99
2023-03-29T04:48:45.032Z,5.98
2023-03-29T04:51:12.402Z,5.96
2023-03-29T04:53:38.820Z,5.98
2023-03-29T04:56:06.186Z,5.96
2023-03-29T04:58:32.901Z,5.96
2023-03-29T05:00:59.580Z,5.95
2023-03-29T05:03:27.007Z,5.95
2023-03-29T05:05:53.638Z,5.96
2023-03-29T05:08:20.263Z,5.98
2023-03-29T05:10:47.502Z,5.99
2023-03-29T05:13:13.894Z,6.00
2023-03-29T05:15:41.802Z,6.00
2023-03-29T05:18:08.287Z,5.99
2023-03-29T05:20:34.801Z,5.98
2023-03-29T05:23:01.416Z,5.99
2023-03-29T05:25:28.166Z,6.00
2023-03-29T05:27:54.600Z,6.00
2023-03-29T05:30:21.000Z,6.00
2023-03-29T05:32:48.030Z,6.01
2023-03-29T05:35:16.556Z,6.02
2023-03-29T05:37:43.331Z,6.02
2023-03-29T05:40:10.679Z,6.04
2023-03-29T05:42:38.595Z,6.04
2023-03-29T05:45:06.410Z,6.05
2023-03-29T05:47:33.035Z,6.06
2023-03-29T05:49:59.446Z,6.08
2023-03-29T05:52:26.067Z,6.10
2023-03-29T05:54:52.817Z,6.10
2023-03-29T05:57:19.410Z,6.13
2023-03-29T05:59:46.907Z,6.13
2023-03-29T06:02:15.371Z,6.13
2023-03-29T06:04:41.942Z,6.15
2023-03-29T06:07:10.353Z,6.16
2023-03-29T06:09:36.793Z,6.18
2023-03-29T06:12:03.996Z,6.19
2023-03-29T06:14:31.159Z,6.22
2023-03-29T06:16:57.576Z,6.23
2023-03-29T06:19:24.286Z,6.24
2023-03-29T06:21:53.178Z,6.26
2023-03-29T06:24:20.578Z,6.27
2023-03-29T06:26:47.065Z,6.30
2023-03-29T06:29:13.530Z,6.33
2023-03-29T06:31:40.848Z,6.38
2023-03-29T06:34:07.887Z,6.39
2023-03-29T06:36:34.943Z,6.42
2023-03-29T06:39:01.414Z,6.46
2023-03-29T06:41:27.887Z,6.51
2023-03-29T06:43:55.009Z,6.54
2023-03-29T06:46:21.578Z,6.54
2023-03-29T06:48:48.333Z,6.59
2023-03-29T06:51:14.866Z,6.60
2023-03-29T06:53:41.406Z,6.62
2023-03-29T06:56:09.752Z,6.65
2023-03-29T06:58:36.867Z,6.66
2023-03-29T07:01:04.276Z,6.69
2023-03-29T07:03:31.517Z,6.73
2023-03-29T07:06:04.502Z,6.79
2023-03-29T07:08:31.678Z,6.83
2023-03-29T07:10:59.273Z,6.84
2023-03-29T07:13:26.307Z,6.89
2023-03-29T07:15:52.884Z,6.89
2023-03-29T07:18:19.770Z,6.91
2023-03-29T07:20:47.626Z,6.94
2023-03-29T07:23:14.070Z,6.95
2023-03-29T07:25:41.018Z,6.96
2023-03-29T07:28:07.808Z,6.94
2023-03-29T07:30:34.338Z,6.98
2023-03-29T07:33:00.900Z,6.98
2023-03-29T07:35:27.890Z,7.04
2023-03-29T07:37:58.374Z,7.07
2023-03-29T07:40:26.054Z,7.11
2023-03-29T07:42:54.940Z,7.13
2023-03-29T07:45:26.182Z,7.15
2023-03-29T07:47:58.102Z,7.16
2023-03-29T07:50:25.693Z,7.20
2023-03-29T07:52:52.224Z,7.23
2023-03-29T07:55:18.863Z,7.26
2023-03-29T07:57:45.423Z,7.31
2023-03-29T08:00:16.493Z,7.33
2023-03-29T08:02:45.194Z,7.35
2023-03-29T08:05:14.339Z,7.36
2023-03-29T08:07:45.124Z,7.34
2023-03-29T08:10:20.244Z,7.29
2023-03-29T08:12:48.042Z,7.31
2023-03-29T08:15:15.471Z,7.30
2023-03-29T08:17:42.939Z,7.31
2023-03-29T08:20:12.861Z,7.35
2023-03-29T08:22:39.663Z,7.36
2023-03-29T08:25:07.446Z,7.42
2023-03-29T08:27:34.631Z,7.47
2023-03-29T08:30:01.406Z,7.51
2023-03-29T08:32:27.841Z,7.55
2023-03-29T08:34:54.439Z,7.60
2023-03-29T08:37:21.010Z,7.67
2023-03-29T08:39:48.525Z,7.71
2023-03-29T08:42:30.138Z,7.76
2023-03-29T08:45:14.074Z,7.79
2023-03-29T08:48:12.424Z,7.84
2023-03-29T08:50:48.014Z,7.88
2023-03-29T08:53:24.013Z,7.96
2023-03-29T08:55:53.254Z,7.95
2023-03-29T08:58:27.186Z,7.98
2023-03-29T09:00:57.382Z,8.03
2023-03-29T09:03:28.990Z,8.06
2023-03-29T09:06:04.883Z,8.11
2023-03-29T09:08:31.760Z,8.15
2023-03-29T09:11:10.896Z,8.21
2023-03-29T09:14:11.411Z,8.22
2023-03-29T09:16:53.279Z,8.27
2023-03-29T09:19:37.646Z,8.27
2023-03-29T09:22:23.298Z,8.33
2023-03-29T09:24:56.381Z,8.38
2023-03-29T09:27:35.096Z,8.48
2023-03-29T09:30:19.328Z,8.61
2023-03-29T09:32:53.025Z,8.69
2023-03-29T09:35:42.930Z,8.72
2023-03-29T09:38:12.381Z,8.85
2023-03-29T09:40:44.774Z,8.96
2023-03-29T09:43:16.852Z,9.03
2023-03-29T09:45:44.629Z,9.07
2023-03-29T09:48:17.045Z,9.10
2023-03-29T09:50:46.854Z,9.16
2023-03-29T09:53:15.782Z,9.26
2023-03-29T09:55:44.639Z,9.30
2023-03-29T09:58:15.242Z,9.31
2023-03-29T10:00:42.594Z,9.31
2023-03-29T10:03:10.696Z,9.41
2023-03-29T10:05:37.956Z,9.46
2023-03-29T10:08:19.623Z,9.48
2023-03-29T10:10:47.041Z,9.50
2023-03-29T10:13:21.027Z,9.53
2023-03-29T10:15:58.375Z,9.52
2023-03-29T10:18:26.445Z,9.66
2023-03-29T10:20:59.644Z,9.79
2023-03-29T10:23:31.783Z,9.84
2023-03-29T10:25:58.810Z,9.87
2023-03-29T10:28:27.932Z,10.00
2023-03-29T10:30:57.438Z,10.02
2023-03-29T10:33:28.018Z,10.03
2023-03-29T10:35:56.666Z,10.08
2023-03-29T10:38:27.877Z,10.24
2023-03-29T10:41:02.720Z,10.19
2023-03-29T10:43:50.738Z,10.30
2023-03-29T10:46:29.328Z,10.42
2023-03-29T10:49:06.025Z,10.63
2023-03-29T10:51:33.283Z,10.75
2023-03-29T10:54:01.418Z,10.82
2023-03-29T10:56:41.653Z,10.96
2023-03-29T10:59:23.906Z,11.13
2023-03-29T11:02:15.245Z,11.22
2023-03-29T11:04:48.876Z,11.30
2023-03-29T11:07:26.437Z,11.36
2023-03-29T11:09:56.124Z,11.39
2023-03-29T11:12:42.957Z,11.39
2023-03-29T11:15:30.792Z,11.38
2023-03-29T11:18:06.347Z,11.41
2023-03-29T11:20:41.885Z,11.53
2023-03-29T11:23:28.244Z,11.75
2023-03-29T11:26:10.631Z,11.95
2023-03-29T11:28:56.577Z,12.19
2023-03-29T11:31:39.362Z,12.19
2023-03-29T11:34:39.653Z,12.04
2023-03-29T11:37:22.837Z,11.85
2023-03-29T11:40:11.267Z,11.79
2023-03-29T11:42:43.839Z,11.65
2023-03-29T11:45:17.544Z,11.58
2023-03-29T11:47:46.589Z,11.67
2023-03-29T11:50:30.097Z,11.81
2023-03-29T11:53:02.989Z,11.79
2023-03-29T11:55:33.385Z,11.83
2023-03-29T11:58:05.253Z,11.85
2023-03-29T12:00:38.834Z,11.83
2023-03-29T12:03:21.962Z,11.81
2023-03-29T12:05:55.628Z,11.80
2023-03-29T12:08:28.766Z,11.83
2023-03-29T12:11:04.473Z,11.86
2023-03-29T12:13:40.150Z,11.83
2023-03-29T12:16:41.974Z,11.95
2023-03-29T12:19:21.706Z,11.99
2023-03-29T12:21:49.588Z,12.07
2023-03-29T12:24:18.100Z,12.18
2023-03-29T12:26:50.641Z,12.31
2023-03-29T12:29:43.438Z,12.34
2023-03-29T12:32:40.395Z,12.44
2023-03-29T12:35:23.609Z,12.63
2023-03-29T12:38:01.609Z,12.67
2023-03-29T12:40:35.850Z,12.68
2023-03-29T12:43:08.885Z,12.84
2023-03-29T12:45:42.827Z,12.91
2023-03-29T12:48:27.183Z,12.94
2023-03-29T12:50:57.249Z,12.98
2023-03-29T12:53:45.748Z,12.99
2023-03-29T12:56:23.601Z,12.92
2023-03-29T12:59:05.385Z,12.98
2023-03-29T13:01:41.335Z,13.01
2023-03-29T13:04:22.360Z,13.13
2023-03-29T13:06:48.836Z,13.19
2023-03-29T13:09:29.781Z,13.26
2023-03-29T13:12:08.967Z,13.34
2023-03-29T13:14:37.948Z,13.44
2023-03-29T13:17:17.905Z,13.57
2023-03-29T13:20:03.929Z,13.66
2023-03-29T13:22:37.750Z,13.50
2023-03-29T13:25:27.776Z,13.38
2023-03-29T13:28:13.068Z,13.29
2023-03-29T13:30:55.170Z,13.25
2023-03-29T13:33:38.204Z,13.16
2023-03-29T13:36:37.634Z,13.09
2023-03-29T13:39:07.076Z,13.06
2023-03-29T13:41:33.489Z,13.08
2023-03-29T13:44:00.277Z,13.15
2023-03-29T13:46:41.071Z,13.16
2023-03-29T13:49:24.568Z,13.25
2023-03-29T13:51:54.013Z,13.34
2023-03-29T13:54:24.691Z,13.34
2023-03-29T13:57:03.009Z,13.27
2023-03-29T13:59:49.343Z,13.36
2023-03-29T14:02:32.802Z,13.49
2023-03-29T14:05:02.090Z,13.56
2023-03-29T14:07:32.616Z,13.61
2023-03-29T14:10:01.137Z,13.70
2023-03-29T14:12:35.945Z,13.80
2023-03-29T14:15:05.289Z,13.83
2023-03-29T14:17:32.570Z,13.89
2023-03-29T14:20:00.935Z,13.85
2023-03-29T14:22:33.655Z,13.81
2023-03-29T14:25:12.502Z,13.68
2023-03-29T14:27:38.980Z,13.69
2023-03-29T14:30:37.803Z,13.64
2023-03-29T14:33:05.262Z,13.54
2023-03-29T14:35:33.214Z,13.58
2023-03-29T14:38:00.505Z,13.65
2023-03-29T14:40:27.749Z,13.67
2023-03-29T14:42:55.106Z,13.67
2023-03-29T14:45:23.460Z,13.65
2023-03-29T14:47:50.886Z,13.64
2023-03-29T14:50:21.504Z,13.58
2023-03-29T14:52:52.277Z,13.57
2023-03-29T14:55:23.413Z,13.51
2023-03-29T14:57:53.183Z,13.50
2023-03-29T15:00:38.806Z,13.49
2023-03-29T15:03:13.490Z,13.54
2023-03-29T15:05:43.709Z,13.59
2023-03-29T15:08:17.843Z,13.61
2023-03-29T15:10:45.175Z,13.56
2023-03-29T15:13:18.499Z,13.68
2023-03-29T15:15:46.262Z,13.75
2023-03-29T15:18:16.726Z,13.72
2023-03-29T15:20:44.897Z,13.72
2023-03-29T15:23:14.352Z,13.67
2023-03-29T15:25:58.378Z,13.64
2023-03-29T15:28:31.049Z,13.59
2023-03-29T15:31:32.704Z,13.54
2023-03-29T15:34:26.360Z,13.41
2023-03-29T15:36:53.996Z,13.32
2023-03-29T15:39:20.951Z,13.27
2023-03-29T15:41:50.188Z,13.22
2023-03-29T15:44:20.879Z,13.17
2023-03-29T15:46:47.449Z,13.17
2023-03-29T15:49:14.829Z,13.18
2023-03-29T15:51:41.496Z,13.21
2023-03-29T15:54:09.192Z,13.14
2023-03-29T15:56:49.765Z,13.20
2023-03-29T15:59:18.117Z,13.23
2023-03-29T16:01:44.939Z,13.27
2023-03-29T16:04:17.434Z,13.36
2023-03-29T16:06:48.498Z,13.36
2023-03-29T16:09:18.652Z,13.35
2023-03-29T16:11:46.368Z,13.34
2023-03-29T16:14:20.296Z,13.24
2023-03-29T16:16:47.164Z,13.19
2023-03-29T16:19:13.790Z,13.16
2023-03-29T16:21:40.618Z,13.15
2023-03-29T16:24:13.528Z,13.17
2023-03-29T16:26:40.046Z,13.17
2023-03-29T16:29:06.512Z,13.16
2023-03-29T16:31:33.066Z,13.22
2023-03-29T16:33:59.558Z,13.23
2023-03-29T16:36:26.491Z,13.37
2023-03-29T16:38:53.507Z,13.40
2023-03-29T16:41:20.026Z,13.35
2023-03-29T16:43:46.671Z,13.36
2023-03-29T16:46:13.205Z,13.27
2023-03-29T16:48:39.727Z,13.26
2023-03-29T16:51:06.951Z,13.15
2023-03-29T16:53:34.603Z,13.13
2023-03-29T16:56:02.727Z,13.12
2023-03-29T16:58:29.440Z,13.19
2023-03-29T17:00:57.003Z,13.25
2023-03-29T17:03:24.304Z,13.31
2023-03-29T17:05:52.934Z,13.26
2023-03-29T17:08:21.100Z,13.29
2023-03-29T17:10:52.947Z,13.40
2023-03-29T17:13:21.163Z,13.34
2023-03-29T17:15:48.824Z,13.24
2023-03-29T17:18:15.463Z,13.21
2023-03-29T17:20:41.929Z,13.22
2023-03-29T17:23:08.950Z,13.25
2023-03-29T17:25:35.799Z,13.19
2023-03-29T17:28:02.767Z,13.14
2023-03-29T17:30:29.265Z,13.08
2023-03-29T17:32:55.967Z,13.04
2023-03-29T17:35:22.536Z,13.17
2023-03-29T17:37:49.176Z,13.17
2023-03-29T17:40:15.703Z,13.16
2023-03-29T17:42:43.522Z,13.19
2023-03-29T17:45:10.869Z,13.20
2023-03-29T17:47:38.552Z,13.27
2023-03-29T17:50:06.731Z,13.23
2023-03-29T17:52:33.626Z,13.15
2023-03-29T17:55:00.275Z,13.10
2023-03-29T17:57:27.017Z,13.13
2023-03-29T17:59:53.571Z,13.13
2023-03-29T18:02:23.778Z,13.17
2023-03-29T18:04:50.645Z,13.19
2023-03-29T18:07:17.815Z,13.13
2023-03-29T18:09:44.297Z,13.16
2023-03-29T18:12:10.970Z,13.07
2023-03-29T18:14:37.423Z,13.04
2023-03-29T18:17:04.119Z,12.99
2023-03-29T18:19:30.829Z,12.98
2023-03-29T18:21:57.518Z,13.05
2023-03-29T18:24:24.012Z,13.11
2023-03-29T18:26:51.180Z,13.06
2023-03-29T18:29:17.719Z,13.14
2023-03-29T18:31:45.823Z,13.11
2023-03-29T18:34:12.571Z,13.13
2023-03-29T18:36:39.270Z,13.08
2023-03-29T18:39:05.907Z,13.05
2023-03-29T18:41:34.777Z,13.05
2023-03-29T18:44:01.411Z,13.02
2023-03-29T18:46:31.715Z,13.01
2023-03-29T18:48:59.299Z,12.97
2023-03-29T18:51:27.850Z,12.96
2023-03-29T18:53:55.960Z,12.93
2023-03-29T18:56:23.197Z,12.89
2023-03-29T18:58:49.748Z,12.93
2023-03-29T19:01:16.347Z,12.92
2023-03-29T19:03:42.978Z,12.93
2023-03-29T19:06:09.640Z,12.88
2023-03-29T19:08:38.682Z,12.82
2023-03-29T19:11:07.708Z,12.88
2023-03-29T19:13:34.975Z,12.87
2023-03-29T19:16:02.432Z,12.84
2023-03-29T19:18:30.468Z,12.81
2023-03-29T19:20:57.081Z,12.78
2023-03-29T19:23:27.155Z,12.76
2023-03-29T19:26:00.166Z,12.85
2023-03-29T19:28:27.438Z,12.87
2023-03-29T19:30:54.798Z,12.83
2023-03-29T19:33:21.646Z,12.88
2023-03-29T19:35:51.375Z,12.92
2023-03-29T19:38:18.994Z,12.90
2023-03-29T19:40:47.098Z,12.87
2023-03-29T19:43:16.901Z,12.84
2023-03-29T19:45:48.652Z,12.85
2023-03-29T19:48:22.330Z,12.77
2023-03-29T19:50:50.141Z,12.76
2023-03-29T19:53:16.871Z,12.71
2023-03-29T19:55:45.005Z,12.69
2023-03-29T19:58:11.703Z,12.68
2023-03-29T20:00:38.942Z,12.67
2023-03-29T20:03:09.191Z,12.64
2023-03-29T20:05:38.342Z,12.71
2023-03-29T20:08:05.352Z,12.72
2023-03-29T20:10:32.231Z,12.68
2023-03-29T20:12:58.930Z,12.65
2023-03-29T20:15:25.889Z,12.65
2023-03-29T20:17:54.161Z,12.63
2023-03-29T20:20:24.095Z,12.65
2023-03-29T20:23:04.388Z,12.58
2023-03-29T20:25:33.783Z,12.52
2023-03-29T20:28:00.630Z,12.54
2023-03-29T20:30:27.171Z,12.52
2023-03-29T20:32:53.846Z,12.54
2023-03-29T20:35:20.826Z,12.48
2023-03-29T20:37:47.381Z,12.43
2023-03-29T20:40:15.762Z,12.38
2023-03-29T20:42:42.478Z,12.32
2023-03-29T20:45:18.678Z,12.34
2023-03-29T20:47:50.548Z,12.29
2023-03-29T20:50:20.229Z,12.30
2023-03-29T20:52:46.949Z,12.30
2023-03-29T20:55:13.569Z,12.26
2023-03-29T20:57:42.108Z,12.24
2023-03-29T21:00:12.295Z,12.23
2023-03-29T21:02:41.699Z,12.24
2023-03-29T21:05:08.811Z,12.28
2023-03-29T21:07:35.269Z,12.22
2023-03-29T21:10:02.126Z,12.22
2023-03-29T21:12:29.035Z,12.21
2023-03-29T21:14:55.477Z,12.20
2023-03-29T21:17:22.021Z,12.22
2023-03-29T21:19:48.731Z,12.27
2023-03-29T21:22:15.213Z,12.26
2023-03-29T21:24:41.719Z,12.20
2023-03-29T21:27:08.426Z,12.14
2023-03-29T21:29:34.888Z,12.18
2023-03-29T21:32:01.462Z,12.14
2023-03-29T21:34:28.070Z,12.13
2023-03-29T21:36:54.505Z,12.14
2023-03-29T21:39:21.041Z,12.11
2023-03-29T21:41:47.473Z,12.13
2023-03-29T21:44:13.952Z,12.13
2023-03-29T21:46:40.430Z,12.08
2023-03-29T21:49:07.046Z,12.09
2023-03-29T21:51:33.536Z,12.15
2023-03-29T21:54:00.199Z,12.12
2023-03-29T21:56:28.184Z,12.10
2023-03-29T21:58:55.034Z,12.15
2023-03-29T22:01:21.570Z,12.14
2023-03-29T22:03:48.385Z,12.11
2023-03-29T22:06:15.121Z,12.09
2023-03-29T22:08:41.585Z,12.06
2023-03-29T22:11:11.176Z,12.10
2023-03-29T22:13:37.902Z,12.11
2023-03-29T22:16:05.437Z,12.08
2023-03-29T22:18:43.602Z,12.02
2023-03-29T22:21:15.393Z,12.01
2023-03-29T22:23:43.328Z,11.98
2023-03-29T22:26:12.198Z,11.99
2023-03-29T22:28:39.803Z,11.98
2023-03-29T22:31:11.891Z,11.95
2023-03-29T22:33:39.814Z,11.91
2023-03-29T22:36:18.887Z,11.94
2023-03-29T22:38:46.555Z,12.00
2023-03-29T22:41:14.525Z,11.99
2023-03-29T22:43:41.752Z,11.96
2023-03-29T22:46:10.528Z,11.94
2023-03-29T22:48:37.785Z,11.93
2023-03-29T22:51:08.230Z,11.95
2023-03-29T22:53:34.797Z,11.90
2023-03-29T22:56:01.367Z,11.88
2023-03-29T22:58:29.345Z,11.87
2023-03-29T23:00:57.108Z,11.86
2023-03-29T23:03:23.817Z,11.84
2023-03-29T23:05:51.790Z,11.79
2023-03-29T23:08:18.309Z,11.74
2023-03-29T23:10:47.963Z,11.73
2023-03-29T23:13:19.841Z,11.72
2023-03-29T23:15:49.172Z,11.68
2023-03-29T23:18:18.110Z,11.66
2023-03-29T23:20:44.660Z,11.64
2023-03-29T23:23:11.136Z,11.63
2023-03-29T23:25:37.530Z,11.60
2023-03-29T23:28:04.069Z,11.56
2023-03-29T23:30:30.953Z,11.52
2023-03-29T23:32:58.202Z,11.53
2023-03-29T23:35:24.722Z,11.56
2023-03-29T23:37:51.258Z,11.58
2023-03-29T23:40:17.702Z,11.54
2023-03-29T23:42:46.367Z,11.58
2023-03-29T23:45:15.667Z,11.55
2023-03-29T23:47:44.084Z,11.59
2023-03-29T23:50:13.279Z,11.58
2023-03-29T23:52:41.115Z,11.56
2023-03-29T23:55:12.281Z,11.54
2023-03-29T23:57:38.676Z,11.51
